Time;durP1;ratioP1;P1;durP2;ratioP2;P2;SDS_P1;SDS_P2;PMS_P1;PMS_P2;Temp;Humidity;BMP_temperature;BMP_pressure;BME280_temperature;BME280_humidity;BME280_pressure;Samples;Min_cycle;Max_cycle;Signal;HPM_P1;HPM_P2
2023/03/28 00:00:59;;;;;;;10.55;2.85;;;1.70;99.90;;;;;;7372430;19;20406;-63
2023/03/28 00:03:27;;;;;;;13.98;2.67;;;1.70;99.90;;;;;;7366933;19;20061;-63
2023/03/28 00:06:01;;;;;;;13.60;2.72;;;1.70;99.90;;;;;;7363599;19;20022;-64
2023/03/28 00:08:28;;;;;;;11.85;2.35;;;1.70;99.90;;;;;;7365142;19;20022;-64
2023/03/28 00:11:12;;;;;;;13.30;3.00;;;1.70;99.90;;;;;;7372760;19;20014;-64
2023/03/28 00:13:38;;;;;;;12.23;2.80;;;1.70;99.90;;;;;;7372189;19;20022;-64
2023/03/28 00:16:07;;;;;;;9.70;2.88;;;1.70;99.90;;;;;;7372083;19;20098;-64
2023/03/28 00:18:37;;;;;;;13.02;2.78;;;1.70;99.90;;;;;;7372102;19;20022;-64
2023/03/28 00:21:23;;;;;;;12.05;2.75;;;1.70;99.90;;;;;;7373746;19;20015;-64
2023/03/28 00:23:54;;;;;;;16.30;3.35;;;1.70;99.90;;;;;;7374487;19;20042;-64
2023/03/28 00:26:26;;;;;;;15.93;3.33;;;1.60;99.90;;;;;;7370596;19;20025;-64
2023/03/28 00:28:53;;;;;;;9.10;2.30;;;1.70;99.90;;;;;;7371896;19;20023;-64
2023/03/28 00:31:21;;;;;;;12.18;2.65;;;1.60;99.90;;;;;;7371098;19;20026;-64
2023/03/28 00:33:48;;;;;;;16.20;3.70;;;1.60;99.90;;;;;;7369982;19;20042;-64
2023/03/28 00:36:21;;;;;;;13.15;2.78;;;1.60;99.90;;;;;;7370622;19;20436;-63
2023/03/28 00:38:48;;;;;;;15.27;3.05;;;1.50;99.90;;;;;;7370126;19;20046;-63
2023/03/28 00:41:17;;;;;;;13.02;3.38;;;1.50;99.90;;;;;;7369787;19;20022;-63
2023/03/28 00:43:50;;;;;;;17.20;3.22;;;1.50;99.90;;;;;;7369813;19;20022;-63
2023/03/28 00:46:31;;;;;;;13.43;3.17;;;1.50;99.90;;;;;;7371389;19;20034;-63
2023/03/28 00:49:16;;;;;;;12.80;2.50;;;1.50;99.90;;;;;;7371397;19;20900;-63
2023/03/28 00:51:55;;;;;;;17.92;3.60;;;1.50;99.90;;;;;;7369163;19;20498;-63
2023/03/28 00:54:26;;;;;;;11.65;2.40;;;1.50;99.90;;;;;;7375339;19;20585;-64
2023/03/28 00:56:56;;;;;;;14.38;2.63;;;1.40;99.90;;;;;;7378121;19;20099;-64
2023/03/28 00:59:27;;;;;;;11.27;2.50;;;1.40;99.90;;;;;;7376830;19;20025;-64
2023/03/28 01:01:54;;;;;;;12.57;3.05;;;1.30;99.90;;;;;;7376203;19;20022;-63
2023/03/28 01:04:26;;;;;;;18.63;3.22;;;1.30;99.90;;;;;;7375129;19;20689;-64
2023/03/28 01:06:57;;;;;;;13.20;3.33;;;1.30;99.90;;;;;;7374924;19;20382;-64
2023/03/28 01:09:24;;;;;;;17.35;3.20;;;1.10;99.90;;;;;;7375375;19;20825;-64
2023/03/28 01:11:55;;;;;;;13.82;2.47;;;1.20;99.90;;;;;;7371800;19;20018;-64
2023/03/28 01:14:25;;;;;;;18.05;2.90;;;1.10;99.90;;;;;;7372868;19;20022;-64
2023/03/28 01:16:55;;;;;;;11.15;2.55;;;1.20;99.90;;;;;;7372675;19;20006;-63
2023/03/28 01:19:50;;;;;;;15.52;2.72;;;1.20;99.90;;;;;;7373036;19;20042;-63
2023/03/28 01:22:54;;;;;;;15.88;3.38;;;1.20;99.90;;;;;;7374520;19;20014;-63
2023/03/28 01:25:52;;;;;;;10.25;2.55;;;1.20;99.90;;;;;;7374256;19;20010;-63
2023/03/28 01:28:31;;;;;;;12.40;2.47;;;1.20;99.90;;;;;;7371262;19;20023;-63
2023/03/28 01:31:19;;;;;;;14.00;2.95;;;1.20;99.90;;;;;;7373620;19;20022;-63
2023/03/28 01:34:40;;;;;;;15.48;3.13;;;1.20;99.90;;;;;;7370704;19;20032;-63
2023/03/28 01:37:37;;;;;;;9.77;2.22;;;1.20;99.90;;;;;;7375149;19;20499;-63
2023/03/28 01:40:14;;;;;;;10.55;2.72;;;1.10;99.90;;;;;;7376226;19;20026;-63
2023/03/28 01:42:50;;;;;;;15.10;2.85;;;1.10;99.90;;;;;;7378742;19;20493;-64
2023/03/28 01:45:19;;;;;;;;;;;1.10;99.90;;;;;;7376096;19;20874;-63
2023/03/28 01:48:12;;;;;;;14.60;2.35;;;1.10;99.90;;;;;;7376915;19;20010;-63
2023/03/28 01:50:55;;;;;;;13.45;2.97;;;1.00;99.90;;;;;;7375556;19;20505;-64
2023/03/28 01:53:47;;;;;;;17.02;3.47;;;0.90;99.90;;;;;;7374735;19;20043;-64
2023/03/28 01:56:21;;;;;;;15.73;2.65;;;0.90;99.90;;;;;;7370665;19;20070;-64
2023/03/28 01:59:39;;;;;;;12.50;2.63;;;0.90;99.90;;;;;;7374674;19;20014;-64
2023/03/28 02:02:43;;;;;;;9.88;2.38;;;0.80;99.90;;;;;;7369708;19;20410;-64
2023/03/28 02:05:42;;;;;;;13.10;2.85;;;0.80;99.90;;;;;;7367609;19;20019;-63
2023/03/28 02:08:15;;;;;;;11.73;2.67;;;0.80;99.90;;;;;;7371449;19;20023;-63
2023/03/28 02:10:49;;;;;;;12.18;2.55;;;0.80;99.90;;;;;;7372852;19;20674;-64
2023/03/28 02:13:40;;;;;;;10.60;2.55;;;0.80;99.90;;;;;;7372217;19;20486;-63
2023/03/28 02:16:26;;;;;;;17.73;2.83;;;0.80;99.90;;;;;;7369721;19;20019;-63
2023/03/28 02:19:25;;;;;;;11.20;2.40;;;0.70;99.90;;;;;;7371647;19;20374;-64
2023/03/28 02:22:23;;;;;;;15.63;3.22;;;0.70;99.90;;;;;;7373573;19;20022;-65
2023/03/28 02:24:58;;;;;;;14.15;3.10;;;0.70;99.90;;;;;;7376228;19;20029;-64
2023/03/28 02:27:46;;;;;;;10.77;2.15;;;0.60;99.90;;;;;;7372166;19;20019;-64
2023/03/28 02:30:32;;;;;;;11.32;2.80;;;0.60;99.90;;;;;;7373869;19;20046;-64
2023/03/28 02:33:07;;;;;;;15.68;3.00;;;0.60;99.90;;;;;;7372016;19;20047;-65
2023/03/28 02:36:13;;;;;;;15.15;2.72;;;0.50;99.90;;;;;;7371524;19;20054;-65
2023/03/28 02:38:47;;;;;;;10.50;2.63;;;0.40;99.90;;;;;;7368361;19;20018;-63
2023/03/28 02:41:20;;;;;;;11.88;2.40;;;0.50;99.90;;;;;;7371804;19;20018;-64
2023/03/28 02:44:09;;;;;;;13.27;2.53;;;0.40;99.90;;;;;;7373630;19;20650;-64
2023/03/28 02:46:51;;;;;;;14.80;2.97;;;0.40;99.90;;;;;;7369781;19;20050;-63
2023/03/28 02:49:33;;;;;;;9.70;2.78;;;0.40;99.90;;;;;;7371305;19;20026;-64
2023/03/28 02:52:08;;;;;;;12.27;3.00;;;0.40;99.90;;;;;;7370333;19;20579;-64
2023/03/28 02:54:57;;;;;;;14.38;2.78;;;0.40;99.90;;;;;;7371774;19;20022;-64
2023/03/28 02:57:45;;;;;;;11.15;2.70;;;0.30;99.90;;;;;;7372289;19;20015;-63
2023/03/28 03:00:17;;;;;;;11.63;2.72;;;0.30;99.90;;;;;;7369271;19;20021;-64
2023/03/28 03:02:50;;;;;;;14.57;2.95;;;0.30;99.90;;;;;;7372146;19;20015;-63
2023/03/28 03:05:21;;;;;;;9.20;2.70;;;0.20;99.90;;;;;;7370531;19;21419;-63
2023/03/28 03:07:49;;;;;;;14.57;2.70;;;0.20;99.90;;;;;;7374038;19;20031;-64
2023/03/28 03:10:16;;;;;;;10.70;2.58;;;0.20;99.90;;;;;;7369065;19;20485;-63
2023/03/28 03:12:46;;;;;;;15.25;3.03;;;0.10;99.90;;;;;;7370579;19;20481;-64
2023/03/28 03:15:15;;;;;;;14.80;2.60;;;0.10;99.90;;;;;;7364829;19;20069;-63
2023/03/28 03:17:47;;;;;;;16.48;3.50;;;0.00;99.90;;;;;;7373129;19;20028;-63
2023/03/28 03:20:17;;;;;;;14.27;2.63;;;0.00;99.90;;;;;;7366114;19;20604;-64
2023/03/28 03:22:43;;;;;;;12.05;3.28;;;0.00;99.90;;;;;;7369682;19;20018;-63
2023/03/28 03:25:11;;;;;;;10.27;2.60;;;-0.10;99.90;;;;;;7369330;19;20385;-63
2023/03/28 03:28:00;;;;;;;9.32;2.95;;;-0.10;99.90;;;;;;7370139;19;20530;-64
2023/03/28 03:30:26;;;;;;;11.65;3.00;;;-0.20;99.90;;;;;;7369530;19;20022;-63
2023/03/28 03:33:13;;;;;;;14.80;3.95;;;-0.20;99.90;;;;;;7367675;19;20715;-64
2023/03/28 03:35:44;;;;;;;16.60;3.13;;;-0.20;99.90;;;;;;7367905;19;20028;-64
2023/03/28 03:38:11;;;;;;;10.70;3.00;;;-0.10;99.90;;;;;;7366959;19;20018;-64
2023/03/28 03:40:39;;;;;;;11.48;2.97;;;-0.10;99.90;;;;;;7368578;19;20026;-63
2023/03/28 03:43:05;;;;;;;13.27;3.17;;;-0.10;99.90;;;;;;7368823;19;20042;-63
2023/03/28 03:45:34;;;;;;;9.38;2.78;;;-0.10;99.90;;;;;;7367546;19;20030;-64
2023/03/28 03:48:01;;;;;;;8.82;2.28;;;-0.10;99.90;;;;;;7367152;19;20018;-64
2023/03/28 03:50:28;;;;;;;17.92;2.85;;;-0.10;99.90;;;;;;7369422;19;20026;-64
2023/03/28 03:52:56;;;;;;;15.13;3.30;;;-0.10;99.90;;;;;;7369534;19;20019;-64
2023/03/28 03:55:27;;;;;;;13.57;3.30;;;-0.10;99.90;;;;;;7367907;19;20359;-64
2023/03/28 03:57:54;;;;;;;9.77;2.85;;;-0.10;99.90;;;;;;7370228;19;20022;-64
2023/03/28 04:00:20;;;;;;;13.32;2.78;;;-0.10;99.90;;;;;;7369150;19;20022;-63
2023/03/28 04:02:47;;;;;;;10.75;2.40;;;-0.10;99.90;;;;;;7372564;19;20588;-64
2023/03/28 04:05:18;;;;;;;17.77;3.33;;;-0.10;99.90;;;;;;7367042;19;20694;-63
2023/03/28 04:08:00;;;;;;;12.40;2.85;;;-0.10;99.90;;;;;;7370637;19;20113;-63
2023/03/28 04:10:31;;;;;;;14.68;3.30;;;-0.10;99.90;;;;;;7368866;19;20640;-63
2023/03/28 04:12:57;;;;;;;13.13;3.47;;;-0.20;99.90;;;;;;7372447;19;20101;-64
2023/03/28 04:15:23;;;;;;;12.55;3.40;;;-0.20;99.90;;;;;;7370117;19;20431;-64
2023/03/28 04:18:19;;;;;;;13.20;4.07;;;-0.20;99.90;;;;;;7366490;19;20023;-63
2023/03/28 04:20:53;;;;;;;13.43;3.10;;;-0.10;99.90;;;;;;7370132;19;20022;-63
2023/03/28 04:23:42;;;;;;;17.73;4.22;;;-0.20;99.90;;;;;;7370392;19;20015;-63
2023/03/28 04:26:34;;;;;;;13.50;3.00;;;-0.10;99.90;;;;;;7359368;19;20030;-64
2023/03/28 04:29:04;;;;;;;8.65;2.08;;;-0.10;99.90;;;;;;7373822;19;20054;-63
2023/03/28 04:31:34;;;;;;;14.13;2.83;;;-0.10;99.90;;;;;;7370255;19;21143;-63
2023/03/28 04:34:18;;;;;;;14.57;3.20;;;0.00;99.90;;;;;;7378997;19;20328;-64
2023/03/28 04:37:00;;;;;;;11.60;2.63;;;0.00;99.90;;;;;;7378319;19;20010;-63
2023/03/28 04:39:34;;;;;;;15.40;4.07;;;0.10;99.90;;;;;;7370748;19;20378;-63
2023/03/28 04:42:20;;;;;;;13.13;2.53;;;0.10;99.90;;;;;;7374249;19;20470;-66
2023/03/28 04:45:07;;;;;;;14.73;3.00;;;0.10;99.90;;;;;;7376735;19;20046;-66
2023/03/28 04:47:36;;;;;;;13.07;3.17;;;0.20;99.90;;;;;;7375427;19;20086;-66
2023/03/28 04:50:03;;;;;;;7.72;2.45;;;0.20;99.90;;;;;;7376493;19;20045;-65
2023/03/28 04:52:35;;;;;;;12.60;2.72;;;0.30;99.90;;;;;;7372983;19;20026;-66
2023/03/28 04:55:01;;;;;;;15.48;3.55;;;0.30;99.90;;;;;;7378156;19;20377;-66
2023/03/28 04:57:27;;;;;;;11.40;2.75;;;0.40;99.90;;;;;;7375929;19;20030;-66
2023/03/28 04:59:59;;;;;;;16.23;3.67;;;0.40;99.90;;;;;;7375446;19;20101;-66
2023/03/28 05:02:44;;;;;;;16.63;3.28;;;0.40;99.90;;;;;;7369686;19;20041;-66
2023/03/28 05:05:12;;;;;;;11.85;2.63;;;0.40;99.90;;;;;;7373798;19;20034;-66
2023/03/28 05:07:39;;;;;;;9.88;3.25;;;0.40;99.90;;;;;;7371685;19;20603;-66
2023/03/28 05:10:07;;;;;;;15.02;3.45;;;0.40;99.90;;;;;;7372485;19;20624;-66
2023/03/28 05:12:37;;;;;;;21.40;3.42;;;0.40;99.90;;;;;;7369040;19;20018;-66
2023/03/28 05:15:05;;;;;;;13.43;2.63;;;0.40;99.90;;;;;;7370164;19;20021;-66
2023/03/28 05:17:36;;;;;;;13.95;3.83;;;0.40;99.90;;;;;;7367738;19;20875;-65
2023/03/28 05:20:15;;;;;;;13.45;2.50;;;0.40;99.90;;;;;;7371132;19;20024;-65
2023/03/28 05:22:49;;;;;;;16.98;3.15;;;0.40;99.90;;;;;;7375515;19;20041;-64
2023/03/28 05:25:15;;;;;;;12.07;2.60;;;0.40;99.90;;;;;;7373319;19;20022;-64
2023/03/28 05:27:42;;;;;;;10.32;2.70;;;0.50;99.90;;;;;;7371791;19;20030;-64
2023/03/28 05:30:12;;;;;;;10.27;3.03;;;0.50;99.90;;;;;;7373208;19;20018;-63
2023/03/28 05:32:38;;;;;;;15.43;2.92;;;0.50;99.90;;;;;;7373243;19;20450;-63
2023/03/28 05:35:11;;;;;;;9.50;2.58;;;0.50;99.90;;;;;;7375742;19;20029;-63
2023/03/28 05:37:38;;;;;;;11.30;3.10;;;0.50;99.90;;;;;;7373545;19;20050;-63
2023/03/28 05:40:06;;;;;;;8.57;2.72;;;0.50;99.90;;;;;;7378039;19;20019;-63
2023/03/28 05:42:34;;;;;;;10.90;3.50;;;0.50;99.90;;;;;;7374273;19;20019;-63
2023/03/28 05:45:11;;;;;;;10.40;2.60;;;0.50;99.90;;;;;;7376023;19;20128;-64
2023/03/28 05:48:16;;;;;;;12.77;2.75;;;0.50;99.90;;;;;;7375158;19;20021;-63
2023/03/28 05:50:43;;;;;;;13.73;2.67;;;0.50;99.90;;;;;;7370134;19;20018;-63
2023/03/28 05:53:10;;;;;;;12.57;3.13;;;0.50;99.90;;;;;;7373357;19;20498;-63
2023/03/28 05:55:37;;;;;;;14.60;2.55;;;0.50;99.90;;;;;;7373969;19;20014;-66
2023/03/28 05:58:05;;;;;;;8.82;3.30;;;0.50;99.90;;;;;;7374574;19;20928;-66
2023/03/28 06:00:41;;;;;;;13.45;3.50;;;0.50;99.90;;;;;;7373586;19;20025;-66
2023/03/28 06:03:08;;;;;;;11.02;3.28;;;0.50;99.90;;;;;;7373334;19;20101;-66
2023/03/28 06:05:40;;;;;;;13.85;3.42;;;0.50;99.90;;;;;;7373531;19;20507;-67
2023/03/28 06:08:16;;;;;;;11.85;3.53;;;0.50;99.90;;;;;;7369215;19;20034;-66
2023/03/28 06:10:42;;;;;;;15.48;3.22;;;0.60;99.90;;;;;;7372602;19;20014;-66
2023/03/28 06:13:19;;;;;;;10.88;3.13;;;0.60;99.90;;;;;;7374358;19;20099;-66
2023/03/28 06:15:47;;;;;;;16.08;3.05;;;0.60;99.90;;;;;;7375280;19;20092;-66
2023/03/28 06:18:13;;;;;;;11.25;2.97;;;0.70;99.90;;;;;;7371502;19;20014;-66
2023/03/28 06:20:44;;;;;;;13.30;3.20;;;0.80;99.90;;;;;;7374353;19;20022;-66
2023/03/28 06:23:11;;;;;;;18.15;3.35;;;0.90;99.90;;;;;;7370964;19;21785;-66
2023/03/28 06:25:37;;;;;;;9.43;3.13;;;1.00;99.90;;;;;;7375702;19;20018;-65
2023/03/28 06:28:03;;;;;;;12.45;3.00;;;1.20;99.90;;;;;;7372552;19;20018;-65
2023/03/28 06:30:31;;;;;;;13.05;3.08;;;1.30;99.90;;;;;;7373053;19;20511;-65
2023/03/28 06:32:58;;;;;;;10.45;3.20;;;1.40;99.90;;;;;;7368221;19;20513;-65
2023/03/28 06:35:24;;;;;;;14.32;3.63;;;1.60;99.90;;;;;;7373663;19;20385;-65
2023/03/28 06:37:52;;;;;;;8.50;2.80;;;1.70;99.90;;;;;;7371536;19;20028;-66
2023/03/28 06:40:25;;;;;;;12.73;3.42;;;1.80;99.90;;;;;;7374031;19;20022;-65
2023/03/28 06:42:52;;;;;;;12.02;3.17;;;2.00;99.90;;;;;;7372981;19;20398;-65
2023/03/28 06:45:45;;;;;;;15.48;3.30;;;2.20;99.90;;;;;;7372988;19;20025;-66
2023/03/28 06:48:13;;;;;;;12.57;4.00;;;2.50;99.90;;;;;;7371327;19;20014;-65
2023/03/28 06:50:59;;;;;;;12.60;3.08;;;2.80;99.90;;;;;;7370528;19;20026;-65
2023/03/28 06:53:26;;;;;;;10.20;2.95;;;3.20;99.90;;;;;;7370687;19;20022;-65
2023/03/28 06:55:54;;;;;;;12.63;3.15;;;3.50;99.90;;;;;;7376135;19;20018;-65
2023/03/28 06:58:21;;;;;;;11.00;3.17;;;3.60;99.90;;;;;;7372885;19;20051;-64
2023/03/28 07:00:54;;;;;;;12.30;3.25;;;3.50;99.90;;;;;;7373974;19;20015;-65
2023/03/28 07:03:53;;;;;;;9.55;2.83;;;3.50;99.90;;;;;;7368875;19;20023;-65
2023/03/28 07:06:22;;;;;;;11.70;2.50;;;3.50;99.90;;;;;;7371074;19;20015;-64
2023/03/28 07:08:48;;;;;;;10.15;3.25;;;3.50;99.90;;;;;;7376123;19;20010;-64
2023/03/28 07:11:17;;;;;;;8.52;2.28;;;3.60;99.90;;;;;;7368411;19;20368;-64
2023/03/28 07:13:47;;;;;;;10.90;2.65;;;3.60;99.90;;;;;;7372452;19;20018;-64
2023/03/28 07:16:15;;;;;;;9.07;3.17;;;3.60;99.90;;;;;;7371018;19;20033;-64
2023/03/28 07:18:43;;;;;;;6.22;2.33;;;3.70;99.90;;;;;;7377987;19;20090;-65
2023/03/28 07:21:14;;;;;;;10.50;2.35;;;3.90;99.90;;;;;;7369962;19;20042;-65
2023/03/28 07:23:41;;;;;;;9.38;2.17;;;4.50;99.90;;;;;;7372371;19;20023;-66
2023/03/28 07:26:12;;;;;;;11.40;2.85;;;4.90;99.90;;;;;;7365513;19;20015;-64
2023/03/28 07:28:38;;;;;;;7.82;2.08;;;5.50;99.90;;;;;;7368478;19;20022;-65
2023/03/28 07:31:05;;;;;;;10.88;2.20;;;5.90;99.90;;;;;;7371375;19;20366;-65
2023/03/28 07:33:35;;;;;;;7.97;2.10;;;6.30;99.90;;;;;;7368381;19;21068;-65
2023/03/28 07:36:14;;;;;;;8.00;2.17;;;6.60;99.90;;;;;;7372941;19;20022;-65
2023/03/28 07:38:43;;;;;;;6.15;2.10;;;6.70;99.90;;;;;;7369370;19;20018;-65
2023/03/28 07:41:10;;;;;;;10.02;2.30;;;7.00;99.90;;;;;;7367855;19;20035;-65
2023/03/28 07:43:39;;;;;;;9.27;2.10;;;7.30;99.90;;;;;;7369904;19;20556;-65
2023/03/28 07:46:08;;;;;;;13.10;2.85;;;8.00;99.90;;;;;;7369480;19;20530;-65
2023/03/28 07:48:36;;;;;;;10.02;2.50;;;8.10;99.90;;;;;;7372845;19;20452;-65
2023/03/28 07:51:05;;;;;;;9.20;2.70;;;8.50;99.90;;;;;;7367645;19;20974;-65
2023/03/28 07:53:32;;;;;;;11.18;2.45;;;8.90;99.90;;;;;;7369330;19;20101;-65
2023/03/28 07:55:59;;;;;;;8.88;2.45;;;9.30;99.90;;;;;;7369115;19;20022;-65
2023/03/28 07:58:34;;;;;;;11.30;3.25;;;9.10;99.90;;;;;;7372020;19;20015;-65
2023/03/28 08:01:07;;;;;;;10.23;2.40;;;8.80;99.90;;;;;;7370901;19;20018;-65
2023/03/28 08:03:49;;;;;;;9.93;2.67;;;8.30;99.90;;;;;;7366914;19;20022;-64
2023/03/28 08:06:16;;;;;;;10.07;2.95;;;7.80;99.90;;;;;;7367910;19;20019;-65
2023/03/28 08:08:43;;;;;;;40.53;6.28;;;7.70;99.90;;;;;;7370247;19;20022;-64
2023/03/28 08:11:28;;;;;;;9.70;2.50;;;7.80;99.90;;;;;;7370465;19;20543;-64
2023/03/28 08:13:55;;;;;;;10.45;3.03;;;7.30;99.90;;;;;;7370476;19;20640;-64
2023/03/28 08:16:23;;;;;;;11.80;3.50;;;7.40;99.90;;;;;;7367438;19;20026;-64
2023/03/28 08:18:51;;;;;;;11.18;2.55;;;7.60;99.90;;;;;;7369633;19;20018;-65
2023/03/28 08:21:18;;;;;;;10.70;2.85;;;8.10;99.90;;;;;;7368387;19;20916;-65
2023/03/28 08:23:45;;;;;;;7.88;2.42;;;8.30;99.90;;;;;;7370500;19;20022;-65
2023/03/28 08:26:47;;;;;;;8.30;2.30;;;8.20;99.90;;;;;;7370790;19;20014;-66
2023/03/28 08:29:14;;;;;;;10.32;2.80;;;8.60;99.90;;;;;;7367966;19;20046;-64
2023/03/28 08:31:40;;;;;;;8.02;2.70;;;8.40;99.90;;;;;;7368903;19;20022;-65
2023/03/28 08:34:11;;;;;;;10.13;1.95;;;8.20;99.90;;;;;;7369949;19;20018;-65
2023/03/28 08:36:40;;;;;;;10.85;2.60;;;8.10;99.90;;;;;;7369793;19;20429;-65
2023/03/28 08:39:18;;;;;;;8.57;1.90;;;8.20;99.90;;;;;;7369365;19;20376;-65
2023/03/28 08:42:08;;;;;;;6.93;1.73;;;8.00;99.90;;;;;;7372403;19;20101;-65
2023/03/28 08:45:03;;;;;;;7.93;2.30;;;7.90;99.90;;;;;;7372277;19;20018;-65
2023/03/28 08:47:42;;;;;;;8.70;1.73;;;8.00;99.90;;;;;;7368450;19;20015;-66
2023/03/28 08:50:38;;;;;;;6.53;2.30;;;8.10;99.90;;;;;;7368488;19;20037;-64
2023/03/28 08:53:05;;;;;;;6.70;1.65;;;8.00;99.90;;;;;;7371382;19;20029;-64
2023/03/28 08:55:41;;;;;;;9.75;2.35;;;8.00;99.90;;;;;;7369795;19;20018;-64
2023/03/28 08:58:18;;;;;;;7.93;2.08;;;7.70;99.90;;;;;;7371180;19;20053;-64
2023/03/28 09:00:46;;;;;;;7.50;2.00;;;7.80;99.90;;;;;;7370941;19;20509;-64
2023/03/28 09:03:17;;;;;;;5.90;2.08;;;8.30;99.90;;;;;;7369750;19;20023;-65
2023/03/28 09:05:48;;;;;;;;;;;8.60;99.90;;;;;;7368922;19;20053;-64
2023/03/28 09:08:43;;;;;;;9.93;1.73;;;9.10;99.90;;;;;;7368632;19;19926;-64
2023/03/28 09:11:33;;;;;;;6.47;1.80;;;9.70;99.30;;;;;;7368330;19;20703;-65
2023/03/28 09:14:03;;;;;;;5.00;1.65;;;9.70;94.20;;;;;;7372875;19;20015;-64
2023/03/28 09:16:35;;;;;;;7.03;2.45;;;10.20;99.90;;;;;;7375622;19;20030;-66
2023/03/28 09:19:47;;;;;;;4.82;1.60;;;10.70;91.80;;;;;;7377265;19;20768;-65
2023/03/28 09:23:14;;;;;;;5.45;1.48;;;10.60;94.10;;;;;;7373758;19;20490;-66
2023/03/28 09:26:03;;;;;;;7.05;1.67;;;11.00;71.60;;;;;;7374048;19;20006;-65
2023/03/28 09:28:41;;;;;;;6.50;2.70;;;10.50;73.40;;;;;;7374482;19;20529;-65
2023/03/28 09:31:11;;;;;;;8.63;2.00;;;10.10;92.00;;;;;;7373450;19;20022;-65
2023/03/28 09:33:41;;;;;;;3.55;0.95;;;10.20;81.50;;;;;;7370998;19;20022;-65
2023/03/28 09:36:22;;;;;;;4.55;1.17;;;10.30;71.00;;;;;;7373851;19;20011;-65
2023/03/28 09:38:55;;;;;;;4.28;1.20;;;9.90;67.70;;;;;;7373868;19;20461;-65
2023/03/28 09:41:57;;;;;;;4.50;1.30;;;9.20;70.90;;;;;;7375044;19;20014;-65
2023/03/28 09:45:06;;;;;;;3.83;1.02;;;9.10;76.80;;;;;;7375592;19;20055;-65
2023/03/28 09:48:17;;;;;;;5.82;1.60;;;10.20;71.70;;;;;;7375025;19;20473;-66
2023/03/28 09:50:46;;;;;;;7.00;1.58;;;11.70;67.70;;;;;;7376325;19;20039;-65
2023/03/28 09:53:36;;;;;;;7.80;1.52;;;11.50;63.60;;;;;;7375258;19;20051;-66
2023/03/28 09:56:35;;;;;;;6.57;1.58;;;11.50;60.30;;;;;;7375942;19;20027;-66
2023/03/28 09:59:32;;;;;;;5.28;1.13;;;11.50;60.60;;;;;;7376279;19;20018;-65
2023/03/28 10:02:23;;;;;;;6.05;1.60;;;11.80;63.20;;;;;;7374904;19;20031;-65
2023/03/28 10:04:50;;;;;;;3.83;1.30;;;11.10;57.70;;;;;;7372675;19;20025;-65
2023/03/28 10:07:43;;;;;;;5.13;1.10;;;11.10;61.50;;;;;;7376092;19;20035;-64
2023/03/28 10:10:36;;;;;;;6.55;1.23;;;10.50;61.20;;;;;;7372331;19;20020;-65
2023/03/28 10:13:05;;;;;;;6.55;1.33;;;10.20;60.30;;;;;;7375965;19;20019;-65
2023/03/28 10:15:45;;;;;;;5.15;1.50;;;10.30;61.50;;;;;;7374726;19;20068;-65
2023/03/28 10:18:42;;;;;;;5.40;1.30;;;10.60;61.70;;;;;;7376065;19;20010;-66
2023/03/28 10:21:24;;;;;;;3.75;1.02;;;10.40;61.20;;;;;;7373292;19;20596;-65
2023/03/28 10:24:06;;;;;;;5.68;1.40;;;10.10;60.30;;;;;;7375449;19;20014;-64
2023/03/28 10:26:32;;;;;;;5.55;1.30;;;10.40;60.60;;;;;;7369346;19;20021;-65
2023/03/28 10:29:06;;;;;;;4.38;1.27;;;10.80;60.70;;;;;;7373840;19;20022;-65
2023/03/28 10:31:37;;;;;;;3.72;1.08;;;11.40;60.00;;;;;;7370916;19;20022;-65
2023/03/28 10:34:29;;;;;;;4.70;1.13;;;10.60;59.80;;;;;;7372866;19;20797;-65
2023/03/28 10:37:25;;;;;;;3.42;1.38;;;10.50;61.40;;;;;;7374833;19;20043;-64
2023/03/28 10:40:29;;;;;;;5.18;1.38;;;10.10;61.60;;;;;;7373472;19;20506;-65
2023/03/28 10:43:15;;;;;;;4.60;1.52;;;10.10;61.60;;;;;;7372952;19;20022;-64
2023/03/28 10:46:13;;;;;;;8.27;1.67;;;10.00;62.20;;;;;;7370683;19;20058;-65
2023/03/28 10:49:12;;;;;;;6.38;2.05;;;10.10;62.80;;;;;;7373521;19;20021;-63
2023/03/28 10:51:41;;;;;;;3.88;1.35;;;10.20;62.80;;;;;;7371544;19;20054;-64
2023/03/28 10:54:49;;;;;;;5.20;1.48;;;10.20;63.00;;;;;;7371782;19;20801;-65
2023/03/28 10:57:45;;;;;;;6.72;1.77;;;10.90;62.20;;;;;;7369716;19;20025;-65
2023/03/28 11:00:18;;;;;;;7.03;1.70;;;10.90;61.40;;;;;;7372750;19;20022;-65
2023/03/28 11:03:12;;;;;;;4.35;1.45;;;11.10;60.30;;;;;;7367658;19;20019;-65
2023/03/28 11:05:49;;;;;;;8.32;1.70;;;10.50;59.00;;;;;;7366188;19;20507;-65
2023/03/28 11:08:36;;;;;;;3.70;1.40;;;10.20;61.00;;;;;;7369906;19;20015;-66
2023/03/28 11:11:43;;;;;;;4.05;1.55;;;10.00;62.30;;;;;;7371005;19;20018;-65
2023/03/28 11:14:27;;;;;;;;;;;10.00;61.90;;;;;;7369225;19;20029;-65
2023/03/28 11:17:25;;;;;;;7.22;2.15;;;10.60;60.00;;;;;;7372746;19;20024;-65
2023/03/28 11:20:25;;;;;;;6.63;1.90;;;11.00;59.00;;;;;;7375105;19;20069;-64
2023/03/28 11:23:14;;;;;;;6.85;2.10;;;11.20;58.90;;;;;;7373728;19;20035;-64
2023/03/28 11:26:08;;;;;;;5.82;1.95;;;11.90;58.50;;;;;;7369850;19;20935;-64
2023/03/28 11:29:08;;;;;;;5.85;2.17;;;12.20;60.00;;;;;;7374164;19;20010;-64
2023/03/28 11:31:58;;;;;;;5.30;1.63;;;11.60;58.40;;;;;;7369336;19;20808;-66
2023/03/28 11:34:34;;;;;;;6.15;1.80;;;11.20;59.30;;;;;;7369109;19;20018;-64
2023/03/28 11:37:16;;;;;;;6.43;1.88;;;10.90;60.10;;;;;;7370427;19;20044;-65
2023/03/28 11:39:58;;;;;;;8.32;2.20;;;11.00;62.00;;;;;;7369424;19;20018;-64
2023/03/28 11:42:59;;;;;;;5.20;1.75;;;10.70;63.10;;;;;;7370531;19;20771;-65
2023/03/28 11:45:31;;;;;;;11.38;1.90;;;10.70;63.20;;;;;;7367394;19;20046;-64
2023/03/28 11:48:22;;;;;;;6.47;1.98;;;10.60;61.70;;;;;;7369856;19;20620;-64
2023/03/28 11:50:56;;;;;;;5.82;1.95;;;10.90;63.70;;;;;;7371068;19;20502;-64
2023/03/28 11:53:58;;;;;;;7.30;1.95;;;11.40;62.50;;;;;;7368998;19;20011;-64
2023/03/28 11:56:40;;;;;;;6.07;2.45;;;11.60;62.70;;;;;;7367313;19;20030;-65
2023/03/28 11:59:26;;;;;;;8.80;1.75;;;11.60;59.20;;;;;;7371003;19;20030;-66
2023/03/28 12:02:04;;;;;;;5.47;1.55;;;11.80;59.90;;;;;;7369153;19;20042;-66
2023/03/28 12:04:41;;;;;;;5.13;1.50;;;12.60;60.70;;;;;;7370313;19;20015;-66
2023/03/28 12:07:18;;;;;;;4.18;1.50;;;12.50;59.40;;;;;;7363529;19;20058;-65
2023/03/28 12:10:07;;;;;;;8.32;2.50;;;11.90;54.80;;;;;;7370458;19;20459;-64
2023/03/28 12:12:54;;;;;;;5.10;1.98;;;11.50;58.30;;;;;;7368656;19;20474;-65
2023/03/28 12:15:31;;;;;;;4.93;1.75;;;11.40;58.80;;;;;;7365895;19;20587;-65
2023/03/28 12:18:21;;;;;;;7.57;1.98;;;11.90;59.50;;;;;;7370288;19;20022;-65
2023/03/28 12:20:59;;;;;;;6.50;1.90;;;12.00;56.90;;;;;;7370191;19;20019;-65
2023/03/28 12:23:58;;;;;;;5.65;2.03;;;12.00;56.60;;;;;;7365949;19;20054;-65
2023/03/28 12:26:52;;;;;;;4.78;1.92;;;12.90;57.30;;;;;;7366326;19;21445;-65
2023/03/28 12:29:31;;;;;;;8.00;2.28;;;13.40;57.00;;;;;;7369505;19;20007;-65
2023/03/28 12:32:26;;;;;;;5.55;2.28;;;12.90;54.70;;;;;;7366792;19;20022;-66
2023/03/28 12:35:22;;;;;;;4.00;2.00;;;12.40;57.80;;;;;;7367997;19;20014;-66
2023/03/28 12:38:20;;;;;;;6.60;1.95;;;13.10;57.90;;;;;;7371149;19;20502;-66
2023/03/28 12:41:05;;;;;;;7.18;2.17;;;13.60;56.90;;;;;;7371716;19;20301;-65
2023/03/28 12:44:02;;;;;;;5.28;2.20;;;13.60;55.10;;;;;;7372292;19;20033;-65
2023/03/28 12:46:50;;;;;;;7.10;2.20;;;13.20;54.40;;;;;;7370797;19;20094;-67
2023/03/28 12:49:40;;;;;;;7.20;2.50;;;13.10;55.90;;;;;;7375032;19;20845;-66
2023/03/28 12:52:18;;;;;;;6.90;2.72;;;12.20;54.20;;;;;;7374968;19;20022;-65
2023/03/28 12:55:01;;;;;;;8.00;2.13;;;12.50;57.70;;;;;;7378306;19;20680;-64
2023/03/28 12:57:39;;;;;;;6.63;2.17;;;12.10;55.00;;;;;;7375402;19;20509;-65
2023/03/28 13:00:24;;;;;;;7.78;2.65;;;12.30;57.50;;;;;;7377127;19;20762;-65
2023/03/28 13:03:54;;;;;;;7.10;2.13;;;12.10;56.90;;;;;;7371885;19;20018;-64
2023/03/28 13:07:16;;;;;;;5.07;2.13;;;12.20;58.90;;;;;;7376399;19;20015;-64
2023/03/28 13:10:10;;;;;;;5.88;2.67;;;11.30;58.20;;;;;;7370974;19;20026;-63
2023/03/28 13:13:01;;;;;;;5.95;2.10;;;11.50;60.20;;;;;;7371912;19;20481;-64
2023/03/28 13:15:30;;;;;;;7.63;2.40;;;12.00;58.40;;;;;;7376159;19;20011;-64
2023/03/28 13:18:19;;;;;;;6.97;2.40;;;12.00;58.50;;;;;;7378798;19;20022;-66
2023/03/28 13:20:52;;;;;;;4.60;2.13;;;12.20;55.50;;;;;;7374496;19;20037;-64
2023/03/28 13:23:28;;;;;;;6.32;2.80;;;11.90;56.10;;;;;;7376733;19;20046;-64
2023/03/28 13:25:57;;;;;;;8.25;2.63;;;11.70;57.70;;;;;;7376043;19;20019;-66
2023/03/28 13:28:44;;;;;;;9.13;2.50;;;11.60;58.60;;;;;;7378038;19;20019;-64
2023/03/28 13:31:25;;;;;;;9.73;2.50;;;11.40;57.20;;;;;;7372200;19;20486;-66
2023/03/28 13:34:00;;;;;;;4.90;2.25;;;11.50;58.00;;;;;;7375835;19;20386;-65
2023/03/28 13:36:27;;;;;;;6.18;2.70;;;10.90;57.00;;;;;;7373071;19;20019;-66
2023/03/28 13:39:12;;;;;;;5.60;2.55;;;10.80;58.80;;;;;;7380407;19;20583;-66
2023/03/28 13:41:44;;;;;;;7.10;2.45;;;10.60;58.60;;;;;;7376769;19;20050;-66
2023/03/28 13:44:32;;;;;;;7.68;2.70;;;10.80;59.20;;;;;;7374625;19;20019;-66
2023/03/28 13:46:59;;;;;;;7.82;3.00;;;10.60;57.50;;;;;;7373369;19;20025;-66